sensor_id;sensor_type;location;lat;lon;timestamp;P1;durP1;ratioP1;P2;durP2;ratioP2
12912;SDS011;6524;51.368;11.984;2024-01-30T00:03:24;14.17;;;10.57;;
12912;SDS011;6524;51.368;11.984;2024-01-30T00:08:25;14.83;;;10.83;;
12912;SDS011;6524;51.368;11.984;2024-01-30T00:13:26;18.43;;;12.00;;
12912;SDS011;6524;51.368;11.984;2024-01-30T00:18:26;16.33;;;12.83;;
12912;SDS011;6524;51.368;11.984;2024-01-30T00:23:26;16.17;;;11.87;;
12912;SDS011;6524;51.368;11.984;2024-01-30T00:28:26;13.13;;;9.97;;
12912;SDS011;6524;51.368;11.984;2024-01-30T00:33:27;12.80;;;8.87;;
12912;SDS011;6524;51.368;11.984;2024-01-30T00:38:27;11.97;;;8.50;;
12912;SDS011;6524;51.368;11.984;2024-01-30T00:43:27;10.43;;;7.30;;
12912;SDS011;6524;51.368;11.984;2024-01-30T00:48:28;7.73;;;6.30;;
12912;SDS011;6524;51.368;11.984;2024-01-30T00:53:28;10.70;;;6.57;;
12912;SDS011;6524;51.368;11.984;2024-01-30T00:58:29;7.70;;;6.20;;
12912;SDS011;6524;51.368;11.984;2024-01-30T01:03:29;7.63;;;5.67;;
12912;SDS011;6524;51.368;11.984;2024-01-30T01:08:29;6.63;;;5.70;;
12912;SDS011;6524;51.368;11.984;2024-01-30T01:13:30;7.43;;;6.47;;
12912;SDS011;6524;51.368;11.984;2024-01-30T01:18:30;8.30;;;6.67;;
12912;SDS011;6524;51.368;11.984;2024-01-30T01:23:30;9.77;;;6.83;;
12912;SDS011;6524;51.368;11.984;2024-01-30T01:28:31;8.73;;;6.63;;
12912;SDS011;6524;51.368;11.984;2024-01-30T01:33:31;9.77;;;7.40;;
12912;SDS011;6524;51.368;11.984;2024-01-30T01:38:32;8.77;;;6.67;;
12912;SDS011;6524;51.368;11.984;2024-01-30T01:43:33;6.43;;;5.57;;
12912;SDS011;6524;51.368;11.984;2024-01-30T01:48:33;7.53;;;5.40;;
12912;SDS011;6524;51.368;11.984;2024-01-30T01:53:34;7.60;;;5.90;;
12912;SDS011;6524;51.368;11.984;2024-01-30T01:58:34;6.83;;;5.40;;
12912;SDS011;6524;51.368;11.984;2024-01-30T02:03:35;7.17;;;6.20;;
12912;SDS011;6524;51.368;11.984;2024-01-30T02:08:37;7.67;;;5.70;;
12912;SDS011;6524;51.368;11.984;2024-01-30T02:13:37;9.93;;;6.93;;
12912;SDS011;6524;51.368;11.984;2024-01-30T02:18:38;6.97;;;5.90;;
12912;SDS011;6524;51.368;11.984;2024-01-30T02:23:43;6.83;;;5.93;;
12912;SDS011;6524;51.368;11.984;2024-01-30T02:28:44;7.67;;;5.50;;
12912;SDS011;6524;51.368;11.984;2024-01-30T02:33:45;7.57;;;5.83;;
12912;SDS011;6524;51.368;11.984;2024-01-30T02:38:45;8.30;;;5.60;;
12912;SDS011;6524;51.368;11.984;2024-01-30T02:43:46;7.23;;;5.43;;
12912;SDS011;6524;51.368;11.984;2024-01-30T02:48:47;8.80;;;6.33;;
12912;SDS011;6524;51.368;11.984;2024-01-30T02:53:47;8.47;;;6.10;;
12912;SDS011;6524;51.368;11.984;2024-01-30T02:58:47;8.30;;;6.30;;
12912;SDS011;6524;51.368;11.984;2024-01-30T03:03:47;8.67;;;5.93;;
12912;SDS011;6524;51.368;11.984;2024-01-30T03:08:48;8.70;;;5.73;;
12912;SDS011;6524;51.368;11.984;2024-01-30T03:13:48;7.90;;;6.17;;
12912;SDS011;6524;51.368;11.984;2024-01-30T03:18:48;8.67;;;6.20;;
12912;SDS011;6524;51.368;11.984;2024-01-30T03:23:49;7.13;;;5.80;;
12912;SDS011;6524;51.368;11.984;2024-01-30T03:28:49;7.23;;;6.10;;
12912;SDS011;6524;51.368;11.984;2024-01-30T03:33:49;7.57;;;5.50;;
12912;SDS011;6524;51.368;11.984;2024-01-30T03:38:50;7.22;;;6.10;;
12912;SDS011;6524;51.368;11.984;2024-01-30T03:43:50;8.07;;;5.90;;
12912;SDS011;6524;51.368;11.984;2024-01-30T03:48:50;7.53;;;5.90;;
12912;SDS011;6524;51.368;11.984;2024-01-30T03:53:51;8.87;;;6.00;;
12912;SDS011;6524;51.368;11.984;2024-01-30T03:58:51;9.57;;;6.23;;
12912;SDS011;6524;51.368;11.984;2024-01-30T04:03:51;8.33;;;6.20;;
12912;SDS011;6524;51.368;11.984;2024-01-30T05:00:34;8.10;;;6.20;;
12912;SDS011;6524;51.368;11.984;2024-01-30T05:05:34;6.47;;;5.73;;
12912;SDS011;6524;51.368;11.984;2024-01-30T05:10:34;7.27;;;5.80;;
12912;SDS011;6524;51.368;11.984;2024-01-30T05:15:34;9.03;;;6.00;;
12912;SDS011;6524;51.368;11.984;2024-01-30T05:20:35;9.33;;;5.87;;
12912;SDS011;6524;51.368;11.984;2024-01-30T05:25:35;7.83;;;5.33;;
12912;SDS011;6524;51.368;11.984;2024-01-30T05:30:35;7.13;;;6.33;;
12912;SDS011;6524;51.368;11.984;2024-01-30T05:35:36;7.07;;;5.67;;
12912;SDS011;6524;51.368;11.984;2024-01-30T05:40:37;8.40;;;5.80;;
12912;SDS011;6524;51.368;11.984;2024-01-30T05:45:38;8.80;;;6.40;;
12912;SDS011;6524;51.368;11.984;2024-01-30T05:50:38;8.73;;;6.47;;
12912;SDS011;6524;51.368;11.984;2024-01-30T05:55:38;10.43;;;8.10;;
12912;SDS011;6524;51.368;11.984;2024-01-30T06:00:38;8.07;;;6.50;;
12912;SDS011;6524;51.368;11.984;2024-01-30T06:05:39;8.70;;;6.57;;
12912;SDS011;6524;51.368;11.984;2024-01-30T06:10:39;10.37;;;6.67;;
12912;SDS011;6524;51.368;11.984;2024-01-30T06:15:40;10.17;;;7.40;;
12912;SDS011;6524;51.368;11.984;2024-01-30T06:20:40;13.07;;;8.33;;
12912;SDS011;6524;51.368;11.984;2024-01-30T06:25:41;11.60;;;7.63;;
12912;SDS011;6524;51.368;11.984;2024-01-30T06:30:41;9.70;;;7.30;;
12912;SDS011;6524;51.368;11.984;2024-01-30T06:35:41;11.60;;;7.57;;
12912;SDS011;6524;51.368;11.984;2024-01-30T06:40:42;9.47;;;7.27;;
12912;SDS011;6524;51.368;11.984;2024-01-30T06:45:42;9.83;;;7.50;;
12912;SDS011;6524;51.368;11.984;2024-01-30T06:50:43;11.77;;;7.67;;
12912;SDS011;6524;51.368;11.984;2024-01-30T06:55:43;9.80;;;7.90;;
12912;SDS011;6524;51.368;11.984;2024-01-30T07:00:44;9.67;;;6.07;;
12912;SDS011;6524;51.368;11.984;2024-01-30T07:05:44;9.37;;;5.97;;
12912;SDS011;6524;51.368;11.984;2024-01-30T07:10:44;8.57;;;6.60;;
12912;SDS011;6524;51.368;11.984;2024-01-30T07:15:45;9.30;;;5.73;;
12912;SDS011;6524;51.368;11.984;2024-01-30T07:20:45;7.03;;;5.53;;
12912;SDS011;6524;51.368;11.984;2024-01-30T07:25:49;8.20;;;5.83;;
12912;SDS011;6524;51.368;11.984;2024-01-30T07:30:49;6.77;;;5.30;;
12912;SDS011;6524;51.368;11.984;2024-01-30T07:35:51;6.70;;;5.40;;
12912;SDS011;6524;51.368;11.984;2024-01-30T07:40:52;8.03;;;5.20;;
12912;SDS011;6524;51.368;11.984;2024-01-30T07:45:53;7.27;;;5.17;;
12912;SDS011;6524;51.368;11.984;2024-01-30T07:50:53;5.50;;;4.90;;
12912;SDS011;6524;51.368;11.984;2024-01-30T07:55:53;6.80;;;5.20;;
12912;SDS011;6524;51.368;11.984;2024-01-30T08:00:54;6.97;;;5.27;;
12912;SDS011;6524;51.368;11.984;2024-01-30T08:05:54;6.13;;;4.83;;
12912;SDS011;6524;51.368;11.984;2024-01-30T08:10:55;6.97;;;5.23;;
12912;SDS011;6524;51.368;11.984;2024-01-30T08:15:55;8.18;;;5.22;;
12912;SDS011;6524;51.368;11.984;2024-01-30T08:20:55;7.80;;;5.30;;
12912;SDS011;6524;51.368;11.984;2024-01-30T08:25:56;7.32;;;5.32;;
12912;SDS011;6524;51.368;11.984;2024-01-30T08:30:56;7.60;;;5.35;;
12912;SDS011;6524;51.368;11.984;2024-01-30T08:35:56;7.18;;;5.50;;
12912;SDS011;6524;51.368;11.984;2024-01-30T08:40:57;8.43;;;5.65;;
12912;SDS011;6524;51.368;11.984;2024-01-30T08:46:00;6.57;;;5.55;;
12912;SDS011;6524;51.368;11.984;2024-01-30T08:51:01;7.28;;;5.78;;
12912;SDS011;6524;51.368;11.984;2024-01-30T08:56:02;6.55;;;5.63;;
12912;SDS011;6524;51.368;11.984;2024-01-30T09:01:03;7.68;;;5.65;;
12912;SDS011;6524;51.368;11.984;2024-01-30T09:06:09;7.70;;;5.45;;
12912;SDS011;6524;51.368;11.984;2024-01-30T09:11:13;7.55;;;5.57;;
12912;SDS011;6524;51.368;11.984;2024-01-30T09:16:15;6.18;;;5.57;;
12912;SDS011;6524;51.368;11.984;2024-01-30T09:21:16;6.43;;;5.50;;
12912;SDS011;6524;51.368;11.984;2024-01-30T09:26:16;9.18;;;5.85;;
12912;SDS011;6524;51.368;11.984;2024-01-30T09:31:17;6.15;;;5.30;;
12912;SDS011;6524;51.368;11.984;2024-01-30T09:36:18;7.85;;;5.80;;
12912;SDS011;6524;51.368;11.984;2024-01-30T09:41:20;7.75;;;5.88;;
12912;SDS011;6524;51.368;11.984;2024-01-30T09:46:27;7.82;;;6.00;;
12912;SDS011;6524;51.368;11.984;2024-01-30T09:51:29;6.93;;;5.60;;
12912;SDS011;6524;51.368;11.984;2024-01-30T09:56:30;7.80;;;6.00;;
12912;SDS011;6524;51.368;11.984;2024-01-30T10:01:30;5.90;;;5.30;;
12912;SDS011;6524;51.368;11.984;2024-01-30T10:06:31;8.52;;;6.68;;
12912;SDS011;6524;51.368;11.984;2024-01-30T10:11:32;6.75;;;5.97;;
12912;SDS011;6524;51.368;11.984;2024-01-30T10:16:34;6.45;;;5.75;;
12912;SDS011;6524;51.368;11.984;2024-01-30T10:21:38;6.63;;;5.93;;
12912;SDS011;6524;51.368;11.984;2024-01-30T10:26:38;8.95;;;6.32;;
12912;SDS011;6524;51.368;11.984;2024-01-30T10:31:39;8.30;;;6.20;;
12912;SDS011;6524;51.368;11.984;2024-01-30T10:36:40;6.82;;;5.88;;
12912;SDS011;6524;51.368;11.984;2024-01-30T10:41:43;6.70;;;6.00;;
12912;SDS011;6524;51.368;11.984;2024-01-30T10:46:45;7.43;;;5.90;;
12912;SDS011;6524;51.368;11.984;2024-01-30T10:51:56;7.10;;;5.90;;
12912;SDS011;6524;51.368;11.984;2024-01-30T10:56:58;7.95;;;6.68;;
12912;SDS011;6524;51.368;11.984;2024-01-30T11:02:02;6.88;;;5.88;;
12912;SDS011;6524;51.368;11.984;2024-01-30T11:07:23;8.20;;;6.18;;
12912;SDS011;6524;51.368;11.984;2024-01-30T11:12:28;7.10;;;6.03;;
12912;SDS011;6524;51.368;11.984;2024-01-30T11:22:50;12.82;;;10.57;;
12912;SDS011;6524;51.368;11.984;2024-01-30T11:27:54;11.77;;;9.43;;
12912;SDS011;6524;51.368;11.984;2024-01-30T11:33:05;8.07;;;6.88;;
12912;SDS011;6524;51.368;11.984;2024-01-30T11:38:09;8.82;;;5.90;;
12912;SDS011;6524;51.368;11.984;2024-01-30T11:43:20;7.75;;;6.32;;
12912;SDS011;6524;51.368;11.984;2024-01-30T11:48:20;7.53;;;6.45;;
12912;SDS011;6524;51.368;11.984;2024-01-30T11:53:21;9.00;;;6.15;;
12912;SDS011;6524;51.368;11.984;2024-01-30T11:58:26;8.75;;;6.13;;
12912;SDS011;6524;51.368;11.984;2024-01-30T12:03:30;7.32;;;6.28;;
12912;SDS011;6524;51.368;11.984;2024-01-30T12:08:32;7.07;;;6.38;;
12912;SDS011;6524;51.368;11.984;2024-01-30T12:13:33;8.88;;;6.43;;
12912;SDS011;6524;51.368;11.984;2024-01-30T12:18:34;7.80;;;6.40;;
12912;SDS011;6524;51.368;11.984;2024-01-30T12:24:01;7.70;;;6.38;;
12912;SDS011;6524;51.368;11.984;2024-01-30T12:29:14;9.00;;;6.80;;
12912;SDS011;6524;51.368;11.984;2024-01-30T12:34:14;7.72;;;6.43;;
12912;SDS011;6524;51.368;11.984;2024-01-30T12:39:17;7.78;;;6.55;;
12912;SDS011;6524;51.368;11.984;2024-01-30T12:44:18;9.93;;;8.25;;
12912;SDS011;6524;51.368;11.984;2024-01-30T12:49:19;11.27;;;9.05;;
12912;SDS011;6524;51.368;11.984;2024-01-30T12:54:19;14.15;;;11.48;;
12912;SDS011;6524;51.368;11.984;2024-01-30T12:59:20;16.38;;;12.40;;
12912;SDS011;6524;51.368;11.984;2024-01-30T13:04:20;15.10;;;11.07;;
12912;SDS011;6524;51.368;11.984;2024-01-30T13:09:21;11.77;;;10.38;;
12912;SDS011;6524;51.368;11.984;2024-01-30T13:14:21;14.40;;;11.13;;
12912;SDS011;6524;51.368;11.984;2024-01-30T13:19:22;15.25;;;10.73;;
12912;SDS011;6524;51.368;11.984;2024-01-30T13:24:23;16.08;;;11.93;;
12912;SDS011;6524;51.368;11.984;2024-01-30T13:29:23;18.15;;;13.10;;
12912;SDS011;6524;51.368;11.984;2024-01-30T13:34:24;16.75;;;12.68;;
12912;SDS011;6524;51.368;11.984;2024-01-30T13:39:25;18.00;;;12.98;;
12912;SDS011;6524;51.368;11.984;2024-01-30T13:44:26;15.90;;;11.95;;
12912;SDS011;6524;51.368;11.984;2024-01-30T13:49:26;17.25;;;11.73;;
12912;SDS011;6524;51.368;11.984;2024-01-30T13:54:27;14.00;;;10.07;;
12912;SDS011;6524;51.368;11.984;2024-01-30T13:59:28;13.65;;;10.02;;
12912;SDS011;6524;51.368;11.984;2024-01-30T14:04:29;11.35;;;9.85;;
12912;SDS011;6524;51.368;11.984;2024-01-30T14:09:29;11.90;;;8.82;;
12912;SDS011;6524;51.368;11.984;2024-01-30T14:14:30;8.60;;;7.03;;
12912;SDS011;6524;51.368;11.984;2024-01-30T14:19:30;8.40;;;7.25;;
12912;SDS011;6524;51.368;11.984;2024-01-30T14:24:31;8.75;;;7.57;;
12912;SDS011;6524;51.368;11.984;2024-01-30T14:29:31;8.18;;;7.10;;
12912;SDS011;6524;51.368;11.984;2024-01-30T14:34:33;15.65;;;7.18;;
12912;SDS011;6524;51.368;11.984;2024-01-30T14:39:35;9.60;;;7.35;;
12912;SDS011;6524;51.368;11.984;2024-01-30T14:44:37;7.40;;;6.20;;
12912;SDS011;6524;51.368;11.984;2024-01-30T14:49:37;8.27;;;6.32;;
12912;SDS011;6524;51.368;11.984;2024-01-30T14:54:38;8.27;;;7.30;;
12912;SDS011;6524;51.368;11.984;2024-01-30T14:59:38;8.73;;;6.75;;
12912;SDS011;6524;51.368;11.984;2024-01-30T15:04:39;8.40;;;6.72;;
12912;SDS011;6524;51.368;11.984;2024-01-30T15:09:39;10.20;;;7.25;;
12912;SDS011;6524;51.368;11.984;2024-01-30T15:14:40;7.28;;;6.45;;
12912;SDS011;6524;51.368;11.984;2024-01-30T15:19:41;8.23;;;6.97;;
12912;SDS011;6524;51.368;11.984;2024-01-30T15:24:41;9.20;;;7.55;;
12912;SDS011;6524;51.368;11.984;2024-01-30T15:29:45;9.32;;;7.18;;
12912;SDS011;6524;51.368;11.984;2024-01-30T15:34:46;9.10;;;8.20;;
12912;SDS011;6524;51.368;11.984;2024-01-30T15:39:46;9.95;;;7.38;;
12912;SDS011;6524;51.368;11.984;2024-01-30T15:44:47;10.07;;;8.25;;
12912;SDS011;6524;51.368;11.984;2024-01-30T15:49:47;11.73;;;8.13;;
12912;SDS011;6524;51.368;11.984;2024-01-30T15:54:48;9.48;;;7.13;;
12912;SDS011;6524;51.368;11.984;2024-01-30T15:59:49;10.65;;;7.93;;
12912;SDS011;6524;51.368;11.984;2024-01-30T16:04:50;8.45;;;7.57;;
12912;SDS011;6524;51.368;11.984;2024-01-30T16:09:50;10.35;;;8.20;;
12912;SDS011;6524;51.368;11.984;2024-01-30T16:14:51;9.05;;;7.43;;
12912;SDS011;6524;51.368;11.984;2024-01-30T16:19:52;8.68;;;7.35;;
12912;SDS011;6524;51.368;11.984;2024-01-30T16:24:55;10.10;;;8.27;;
12912;SDS011;6524;51.368;11.984;2024-01-30T16:29:55;11.52;;;9.27;;
12912;SDS011;6524;51.368;11.984;2024-01-30T16:34:57;12.63;;;8.80;;
12912;SDS011;6524;51.368;11.984;2024-01-30T16:39:59;12.63;;;10.27;;
12912;SDS011;6524;51.368;11.984;2024-01-30T16:45:00;12.60;;;9.63;;
12912;SDS011;6524;51.368;11.984;2024-01-30T16:50:03;11.05;;;8.65;;
12912;SDS011;6524;51.368;11.984;2024-01-30T16:55:04;11.30;;;8.57;;
12912;SDS011;6524;51.368;11.984;2024-01-30T17:00:06;9.88;;;8.07;;
12912;SDS011;6524;51.368;11.984;2024-01-30T17:05:10;11.48;;;8.50;;
12912;SDS011;6524;51.368;11.984;2024-01-30T17:10:11;11.70;;;9.80;;
12912;SDS011;6524;51.368;11.984;2024-01-30T17:15:13;10.88;;;9.05;;
12912;SDS011;6524;51.368;11.984;2024-01-30T17:20:15;11.48;;;8.80;;
12912;SDS011;6524;51.368;11.984;2024-01-30T17:25:16;11.50;;;9.25;;
12912;SDS011;6524;51.368;11.984;2024-01-30T17:30:20;10.95;;;9.82;;
12912;SDS011;6524;51.368;11.984;2024-01-30T17:35:22;11.48;;;8.75;;
12912;SDS011;6524;51.368;11.984;2024-01-30T17:40:22;11.77;;;9.57;;
12912;SDS011;6524;51.368;11.984;2024-01-30T17:45:23;13.07;;;10.32;;
12912;SDS011;6524;51.368;11.984;2024-01-30T17:50:23;13.00;;;10.07;;
12912;SDS011;6524;51.368;11.984;2024-01-30T17:55:24;11.35;;;9.32;;
12912;SDS011;6524;51.368;11.984;2024-01-30T18:00:24;11.38;;;9.48;;
12912;SDS011;6524;51.368;11.984;2024-01-30T18:05:25;18.00;;;15.00;;
12912;SDS011;6524;51.368;11.984;2024-01-30T18:10:25;13.35;;;10.77;;
12912;SDS011;6524;51.368;11.984;2024-01-30T18:15:26;11.40;;;9.60;;
12912;SDS011;6524;51.368;11.984;2024-01-30T18:20:27;12.32;;;9.82;;
12912;SDS011;6524;51.368;11.984;2024-01-30T18:25:27;12.40;;;9.73;;
12912;SDS011;6524;51.368;11.984;2024-01-30T18:30:28;13.48;;;10.88;;
12912;SDS011;6524;51.368;11.984;2024-01-30T18:35:28;15.27;;;10.88;;
12912;SDS011;6524;51.368;11.984;2024-01-30T18:40:29;12.55;;;10.00;;
12912;SDS011;6524;51.368;11.984;2024-01-30T18:45:30;9.95;;;8.55;;
12912;SDS011;6524;51.368;11.984;2024-01-30T18:50:30;10.88;;;9.50;;
12912;SDS011;6524;51.368;11.984;2024-01-30T18:55:31;12.25;;;9.88;;
12912;SDS011;6524;51.368;11.984;2024-01-30T19:00:32;11.95;;;8.93;;
12912;SDS011;6524;51.368;11.984;2024-01-30T19:05:36;12.20;;;9.20;;
12912;SDS011;6524;51.368;11.984;2024-01-30T19:10:36;13.35;;;9.68;;
12912;SDS011;6524;51.368;11.984;2024-01-30T19:15:37;13.60;;;9.48;;
12912;SDS011;6524;51.368;11.984;2024-01-30T19:20:38;10.20;;;8.68;;
12912;SDS011;6524;51.368;11.984;2024-01-30T19:25:38;10.68;;;8.07;;
12912;SDS011;6524;51.368;11.984;2024-01-30T19:30:39;12.13;;;8.55;;
12912;SDS011;6524;51.368;11.984;2024-01-30T19:35:40;10.73;;;8.45;;
12912;SDS011;6524;51.368;11.984;2024-01-30T19:40:40;10.90;;;8.25;;
12912;SDS011;6524;51.368;11.984;2024-01-30T19:45:41;10.48;;;9.35;;
12912;SDS011;6524;51.368;11.984;2024-01-30T19:50:42;16.02;;;12.32;;
12912;SDS011;6524;51.368;11.984;2024-01-30T19:55:42;12.02;;;9.85;;
12912;SDS011;6524;51.368;11.984;2024-01-30T20:00:43;12.45;;;10.52;;
12912;SDS011;6524;51.368;11.984;2024-01-30T20:05:44;14.40;;;10.65;;
12912;SDS011;6524;51.368;11.984;2024-01-30T20:10:44;12.80;;;11.48;;
12912;SDS011;6524;51.368;11.984;2024-01-30T20:15:45;14.15;;;11.18;;
12912;SDS011;6524;51.368;11.984;2024-01-30T20:20:45;16.05;;;11.18;;
12912;SDS011;6524;51.368;11.984;2024-01-30T20:25:46;14.68;;;11.90;;
12912;SDS011;6524;51.368;11.984;2024-01-30T20:30:46;14.32;;;12.00;;
12912;SDS011;6524;51.368;11.984;2024-01-30T20:35:47;14.52;;;12.55;;
12912;SDS011;6524;51.368;11.984;2024-01-30T20:40:48;14.85;;;12.40;;
12912;SDS011;6524;51.368;11.984;2024-01-30T20:45:48;15.73;;;12.75;;
12912;SDS011;6524;51.368;11.984;2024-01-30T20:50:49;17.58;;;13.60;;
12912;SDS011;6524;51.368;11.984;2024-01-30T20:55:52;16.67;;;14.25;;
12912;SDS011;6524;51.368;11.984;2024-01-30T21:00:53;15.52;;;13.10;;
12912;SDS011;6524;51.368;11.984;2024-01-30T21:05:54;16.35;;;13.98;;
12912;SDS011;6524;51.368;11.984;2024-01-30T21:10:55;16.55;;;12.88;;
12912;SDS011;6524;51.368;11.984;2024-01-30T21:15:56;15.65;;;13.48;;
12912;SDS011;6524;51.368;11.984;2024-01-30T21:20:57;16.58;;;13.77;;
12912;SDS011;6524;51.368;11.984;2024-01-30T21:25:58;15.27;;;12.23;;
12912;SDS011;6524;51.368;11.984;2024-01-30T21:30:59;13.60;;;11.52;;
12912;SDS011;6524;51.368;11.984;2024-01-30T21:36:01;13.10;;;11.18;;
12912;SDS011;6524;51.368;11.984;2024-01-30T21:41:02;14.35;;;11.05;;
12912;SDS011;6524;51.368;11.984;2024-01-30T21:46:03;13.85;;;11.63;;
12912;SDS011;6524;51.368;11.984;2024-01-30T21:51:07;15.32;;;11.63;;
12912;SDS011;6524;51.368;11.984;2024-01-30T21:56:07;13.93;;;11.55;;
12912;SDS011;6524;51.368;11.984;2024-01-30T22:01:08;15.63;;;11.73;;
12912;SDS011;6524;51.368;11.984;2024-01-30T22:06:08;15.50;;;11.70;;
12912;SDS011;6524;51.368;11.984;2024-01-30T22:11:09;13.90;;;11.35;;
12912;SDS011;6524;51.368;11.984;2024-01-30T22:16:10;14.73;;;11.60;;
12912;SDS011;6524;51.368;11.984;2024-01-30T22:21:11;13.02;;;10.85;;
12912;SDS011;6524;51.368;11.984;2024-01-30T22:26:15;13.20;;;11.38;;
12912;SDS011;6524;51.368;11.984;2024-01-30T22:31:16;13.55;;;11.55;;
12912;SDS011;6524;51.368;11.984;2024-01-30T22:36:16;12.70;;;10.57;;
12912;SDS011;6524;51.368;11.984;2024-01-30T22:41:23;18.90;;;13.20;;
12912;SDS011;6524;51.368;11.984;2024-01-30T22:46:25;14.85;;;10.75;;
12912;SDS011;6524;51.368;11.984;2024-01-30T22:51:26;14.40;;;10.95;;
12912;SDS011;6524;51.368;11.984;2024-01-30T22:56:28;12.48;;;10.02;;
12912;SDS011;6524;51.368;11.984;2024-01-30T23:01:28;12.18;;;10.05;;
12912;SDS011;6524;51.368;11.984;2024-01-30T23:06:29;11.15;;;9.65;;
12912;SDS011;6524;51.368;11.984;2024-01-30T23:11:29;13.82;;;9.43;;
12912;SDS011;6524;51.368;11.984;2024-01-30T23:16:30;14.80;;;10.05;;
12912;SDS011;6524;51.368;11.984;2024-01-30T23:21:31;10.70;;;9.13;;
12912;SDS011;6524;51.368;11.984;2024-01-30T23:26:32;14.27;;;9.48;;
12912;SDS011;6524;51.368;11.984;2024-01-30T23:31:32;13.98;;;9.63;;
12912;SDS011;6524;51.368;11.984;2024-01-30T23:36:33;12.45;;;9.48;;
12912;SDS011;6524;51.368;11.984;2024-01-30T23:41:39;12.38;;;9.55;;
12912;SDS011;6524;51.368;11.984;2024-01-30T23:46:40;12.55;;;9.40;;
12912;SDS011;6524;51.368;11.984;2024-01-30T23:51:40;12.73;;;10.13;;
12912;SDS011;6524;51.368;11.984;2024-01-30T23:56:42;11.70;;;9.60;;
